Terminal Aerodrome Forecast
Issued by NWS

Home | Current Version | Previous Version | Graphics & Text | Print | Product List | Glossary On
Versions: 1 2 3 4 5 6 7 8 9 10 11 12 13 14 15 16 17 18 19 20 21 22 23
417
FTUS43 KABR 231337 AAA
TAFATY
TAF AMD
KATY 231337Z 2314/2412 31020G26KT P6SM BKN025 OVC045
     FM231900 31019G27KT P6SM BKN050
     FM240300 30007KT P6SM SKC=

USA.gov is the U.S. government's official web portal to all federal, state and local government web resources and services.